Archival Weather

Chicago O'Hare International

Chicago, Illinois (KORD)

Report from: Wednesday, December 21, 2022 8:51 AM CST
Current time: Friday, June 21, 2024 3:42 AM CDT

Current weather – Weather history – Daily summaries
Weather forecast

Temperature-10.0°C (14.0°F)
Wind chill-15.0°C (5.1°F)
Dew point-13.9°C (7.0°F)
Winds 5 kts (2.6 m/s, 5.8 mph) North-Northwest (340°)
Visibility10 mi. (16.1 km)
Clouds Ceiling: Overcast 1,600 ft. (488 m)
Altimeter30.45 in.Hg (1031 mB)
Relative humidity73 %
Density altitude-3,744 ft. (-1,141 m)
Sea-level pressure103.2 kPa (1032 mB, 30.49 in.Hg)
Remarks Automated weather observing station with precipitation discriminator
Pressure falling
Flight conditions Marginal Visual Meteorological Conditions
Raw dataKORD 211451Z 34005KT 10SM OVC016 M10/M14 A3045 RMK AO2 SLP324 T11001139 57002
An error has occurred. This application may no longer respond until reloaded. Reload 🗙